Prior Lake, MN (55372)

9:47 PM CDT on August 04, 2015 (GMT -0500)
KB9ZI Carriage Hills | | Change Station
CLOSE
Current Station
Personal Weather Station
Location: Prior Lake, MN
Elevation: 975 ft
Nearby Weather Stations

Elev 975 ft 44.74 °N, 93.44 °W | Updated 18 seconds ago

Clear
Clear
68.6 °F
Feels Like 68.6 °F
N
0.0
Wind Variable Wind from WNW
Gusts 0.0 mph

Today
High -- | Low -- °F
--% Chance of Precip.
Yesterday
High -- | Low -- °F
Precip. -- in
6:03 AM 8:35 PM
Waning Gibbous, 72% visible
Pressure 29.98 in
Visibility 10.0 miles
Clouds Few 7000 ft
Dew Point 56 °F
Humidity 64%
Rainfall 0.00 in
Snow Depth Not available.
UV 0 out of 12
Pollen 7.50 out of 12
Air Quality Not available.
Flu Activity Not available.
METAR KFCM 050153Z 25005KT 10SM FEW070 22/12 A2999 RMK AO2 SLP152 T02170117

More Conditions Fewer Conditions

Pressure 29.98 in
Visibility 10.0 miles
Clouds Few 7000 ft
Dew Point 56 °F
Humidity 64%
Rainfall 0.00 in
Snow Depth Not available.
UV 0 out of 12
Pollen 7.50 out of 12
Air Quality Not available.
Flu Activity Not available.
METAR KFCM 050153Z 25005KT 10SM FEW070 22/12 A2999 RMK AO2 SLP152 T02170117

More Conditions Fewer Conditions

10-Day Weather Forecast

×

Almanac

Astronomy

Aug. 04, 2015 Rise Set
Actual Time
Civil Twilight
Nautical Twilight
Astronomical Twilight
Moon
Length of Visible Light
Length of Day
Tomorrow will be .
, % of the Moon is Illuminated

Today's Extremes

State Highs State Lows

Community

WunderPhotos

Upload Photos

1,844,089 photos uploaded!

WunderBlogs® & News

Nearby

Air Quality

  Air Quality AQ Index Pollutant
Not available.

Snow Depth

Station Depth Elevation

Earthquake Activity

City Distance Mag. Time & Date
Minimum magnitude displayed is 2.5.

Coastal Water Temperatures

Place Temperature

Stations

Nearby Weather Stations

Station Location Temp. Windchill Dew Point Humidity Wind Precip. Elev Updated Type